createdAt,value
2019-06-27T00:02:24.379Z,40.27
2019-06-27T00:04:54.101Z,40.13
2019-06-27T00:07:23.812Z,40.33
2019-06-27T00:09:53.466Z,39.93
2019-06-27T00:12:23.204Z,40.97
2019-06-27T00:14:52.921Z,40.10
2019-06-27T00:17:22.618Z,41.27
2019-06-27T00:19:52.343Z,40.63
2019-06-27T00:22:22.032Z,41.00
2019-06-27T00:24:51.736Z,40.27
2019-06-27T00:27:21.737Z,40.23
2019-06-27T00:29:52.520Z,41.00
2019-06-27T00:32:22.167Z,41.30
2019-06-27T00:34:53.311Z,40.50
2019-06-27T00:37:26.142Z,40.83
2019-06-27T00:39:55.793Z,41.27
2019-06-27T00:42:25.463Z,40.30
2019-06-27T00:44:55.144Z,40.87
2019-06-27T00:47:24.810Z,41.03
2019-06-27T00:49:56.007Z,40.60
2019-06-27T00:52:28.404Z,41.37
2019-06-27T00:54:58.130Z,41.37
2019-06-27T00:57:29.815Z,40.00
2019-06-27T01:00:00.195Z,39.67
2019-06-27T01:02:31.338Z,39.80
2019-06-27T01:05:04.153Z,39.97
2019-06-27T01:07:33.838Z,40.43
2019-06-27T01:10:05.010Z,40.03
2019-06-27T01:12:36.785Z,40.20
2019-06-27T01:15:10.485Z,40.77
2019-06-27T01:17:40.154Z,40.30
2019-06-27T01:20:11.321Z,41.37
2019-06-27T01:22:42.665Z,41.20
2019-06-27T01:25:13.007Z,40.90
2019-06-27T01:27:46.320Z,41.13
2019-06-27T01:30:18.646Z,40.67
2019-06-27T01:32:49.423Z,41.57
2019-06-27T01:35:20.065Z,42.20
2019-06-27T01:37:52.289Z,40.73
2019-06-27T01:40:22.545Z,40.77
2019-06-27T01:42:52.304Z,41.23
2019-06-27T01:45:23.598Z,41.90
2019-06-27T01:47:55.355Z,40.87
2019-06-27T01:50:26.207Z,39.87
2019-06-27T01:52:55.892Z,40.57
2019-06-27T01:55:25.879Z,39.80
2019-06-27T01:57:55.794Z,39.77
2019-06-27T02:00:26.096Z,40.13
2019-06-27T02:02:55.754Z,40.10
2019-06-27T02:05:25.423Z,39.47
2019-06-27T02:07:55.108Z,40.00
2019-06-27T02:10:25.356Z,40.30
2019-06-27T02:12:56.783Z,40.43
2019-06-27T02:15:28.244Z,40.57
2019-06-27T02:17:57.903Z,39.93
2019-06-27T02:20:29.285Z,39.70
2019-06-27T02:22:59.058Z,40.57
2019-06-27T02:25:29.003Z,40.20
2019-06-27T02:28:04.069Z,39.97
2019-06-27T02:30:44.604Z,40.57
2019-06-27T02:33:14.552Z,39.93
2019-06-27T02:35:44.225Z,39.93
2019-06-27T02:38:13.916Z,40.17
2019-06-27T02:40:43.683Z,39.87
2019-06-27T02:43:13.350Z,39.97
2019-06-27T02:45:44.804Z,40.53
2019-06-27T02:48:14.468Z,39.93
2019-06-27T02:50:44.139Z,40.53
2019-06-27T02:53:13.954Z,40.17
2019-06-27T02:55:43.611Z,40.43
2019-06-27T02:58:30.199Z,39.70
2019-06-27T03:00:44.697Z,40.57
2019-06-27T03:03:15.045Z,40.40
2019-06-27T03:05:44.710Z,40.50
2019-06-27T03:08:14.636Z,40.20
2019-06-27T03:10:44.298Z,40.37
2019-06-27T03:13:13.953Z,40.37
2019-06-27T03:15:43.651Z,40.20
2019-06-27T03:18:13.323Z,40.53
2019-06-27T03:20:43.416Z,39.93
2019-06-27T03:23:13.678Z,40.63
2019-06-27T03:25:44.458Z,39.87
2019-06-27T03:28:14.110Z,39.40
2019-06-27T03:30:43.997Z,39.53
2019-06-27T03:33:13.654Z,39.80
2019-06-27T03:35:43.685Z,39.37
2019-06-27T03:38:15.246Z,39.80
2019-06-27T03:40:46.573Z,39.20
2019-06-27T03:43:16.229Z,39.60
2019-06-27T03:45:45.913Z,39.60
2019-06-27T03:48:16.674Z,39.23
2019-06-27T03:50:46.318Z,39.67
2019-06-27T03:53:16.294Z,39.97
2019-06-27T03:55:49.389Z,39.47
2019-06-27T03:58:20.530Z,40.07
2019-06-27T04:00:50.229Z,38.93
2019-06-27T04:03:19.899Z,39.77
2019-06-27T04:05:49.544Z,39.97
2019-06-27T04:08:19.243Z,39.47
2019-06-27T04:10:49.536Z,39.60
2019-06-27T04:13:19.134Z,39.40
2019-06-27T04:16:09.380Z,38.70
2019-06-27T04:18:39.051Z,40.03
2019-06-27T04:21:08.724Z,39.60
2019-06-27T04:23:40.074Z,39.57
2019-06-27T04:26:11.146Z,38.80
2019-06-27T04:28:42.378Z,39.33
2019-06-27T04:31:12.059Z,39.97
2019-06-27T04:33:41.704Z,39.17
2019-06-27T04:36:11.717Z,38.90
2019-06-27T04:38:41.563Z,39.17
2019-06-27T04:41:13.869Z,38.93
2019-06-27T04:43:43.537Z,39.00
2019-06-27T04:46:13.226Z,39.77
2019-06-27T04:48:43.117Z,39.57
2019-06-27T04:51:12.761Z,40.40
2019-06-27T04:53:45.373Z,40.30
2019-06-27T04:56:15.046Z,40.30
2019-06-27T04:58:44.715Z,40.70
2019-06-27T05:01:14.456Z,40.20
2019-06-27T05:03:44.085Z,40.73
2019-06-27T05:06:13.775Z,40.33
2019-06-27T05:08:43.466Z,39.87
2019-06-27T05:11:13.123Z,40.33
2019-06-27T05:13:42.789Z,40.73
2019-06-27T05:16:13.769Z,40.33
2019-06-27T05:18:43.416Z,41.10
2019-06-27T05:21:13.861Z,40.43
2019-06-27T05:23:43.561Z,40.80
2019-06-27T05:26:14.680Z,40.50
2019-06-27T05:28:44.699Z,41.27
2019-06-27T05:31:14.518Z,41.20
2019-06-27T05:33:44.118Z,40.87
2019-06-27T05:36:13.796Z,40.10
2019-06-27T05:38:43.429Z,40.50
2019-06-27T05:41:13.211Z,40.57
2019-06-27T05:43:44.351Z,41.00
2019-06-27T05:46:14.755Z,40.63
2019-06-27T05:48:44.429Z,40.10
2019-06-27T05:51:14.101Z,40.20
2019-06-27T05:53:45.715Z,40.33
2019-06-27T05:56:16.658Z,40.20
2019-06-27T05:58:46.632Z,39.57
2019-06-27T06:01:16.291Z,40.20
2019-06-27T06:03:45.955Z,40.90
2019-06-27T06:06:15.549Z,40.67
2019-06-27T06:08:45.274Z,40.67
2019-06-27T06:11:15.286Z,41.30
2019-06-27T06:13:44.955Z,40.87
2019-06-27T06:16:16.136Z,40.77
2019-06-27T06:18:45.834Z,40.00
2019-06-27T06:21:15.498Z,40.27
2019-06-27T06:23:45.140Z,40.80
2019-06-27T06:26:15.919Z,40.30
2019-06-27T06:28:45.842Z,40.60
2019-06-27T06:31:15.476Z,41.17
2019-06-27T06:33:45.127Z,41.00
2019-06-27T06:36:14.816Z,41.60
2019-06-27T06:38:44.514Z,40.80
2019-06-27T06:41:14.223Z,40.77
2019-06-27T06:43:43.881Z,40.50
2019-06-27T06:46:13.705Z,39.43
2019-06-27T06:48:43.384Z,40.57
2019-06-27T06:51:13.054Z,40.80
2019-06-27T06:53:42.768Z,40.30
2019-06-27T06:56:12.524Z,40.10
2019-06-27T06:58:42.123Z,39.90
2019-06-27T07:01:11.857Z,40.07
2019-06-27T07:03:41.569Z,39.80
2019-06-27T07:06:11.275Z,39.70
2019-06-27T07:08:40.961Z,41.07
2019-06-27T07:11:10.628Z,40.63
2019-06-27T07:13:40.209Z,41.00
2019-06-27T07:16:09.890Z,39.83
2019-06-27T07:18:40.706Z,40.07
2019-06-27T07:21:11.854Z,41.03
2019-06-27T07:23:42.462Z,40.90
2019-06-27T07:26:13.995Z,40.57
2019-06-27T07:28:45.147Z,41.23
2019-06-27T07:31:18.169Z,40.93
2019-06-27T07:33:49.231Z,41.03
2019-06-27T07:36:18.887Z,41.70
2019-06-27T07:38:48.555Z,40.97
2019-06-27T07:41:18.211Z,40.77
2019-06-27T07:43:47.864Z,40.93
2019-06-27T07:46:25.284Z,40.87
2019-06-27T07:48:49.088Z,41.40
2019-06-27T07:51:18.795Z,41.47
2019-06-27T07:53:49.359Z,40.87
2019-06-27T07:56:20.346Z,40.40
2019-06-27T07:58:50.066Z,40.43
2019-06-27T08:01:34.161Z,40.60
2019-06-27T08:03:51.229Z,40.87
2019-06-27T08:06:20.897Z,40.90
2019-06-27T08:08:50.653Z,40.83
2019-06-27T08:11:20.324Z,41.43
2019-06-27T08:13:49.976Z,41.03
2019-06-27T08:16:23.887Z,41.10
2019-06-27T08:18:53.554Z,41.53
2019-06-27T08:21:24.858Z,40.87
2019-06-27T08:23:54.632Z,41.20
2019-06-27T08:26:24.278Z,40.90
2019-06-27T08:28:53.941Z,40.63
2019-06-27T08:31:23.701Z,40.93
2019-06-27T08:33:54.567Z,42.30
2019-06-27T08:36:24.254Z,40.67
2019-06-27T08:38:53.940Z,40.87
2019-06-27T08:41:23.600Z,41.57
2019-06-27T08:43:53.195Z,41.87
2019-06-27T08:46:22.988Z,42.17
2019-06-27T08:48:52.655Z,41.57
2019-06-27T08:51:22.326Z,41.03
2019-06-27T08:53:53.010Z,40.67
2019-06-27T08:56:23.641Z,41.00
2019-06-27T08:58:53.324Z,41.50
2019-06-27T09:01:32.399Z,41.23
2019-06-27T09:04:02.094Z,41.13
2019-06-27T09:06:31.770Z,40.83
2019-06-27T09:09:01.464Z,40.80
2019-06-27T09:11:33.862Z,40.33
2019-06-27T09:14:02.592Z,40.43
2019-06-27T09:16:34.709Z,41.07
2019-06-27T09:19:04.377Z,41.10
2019-06-27T09:21:34.044Z,41.10
2019-06-27T09:24:03.750Z,41.00
2019-06-27T09:26:33.418Z,41.73
2019-06-27T09:29:03.097Z,41.70
2019-06-27T09:31:32.779Z,41.03
2019-06-27T09:34:03.291Z,41.40
2019-06-27T09:36:32.955Z,40.90
2019-06-27T09:39:04.745Z,40.73
2019-06-27T09:41:34.428Z,41.73
2019-06-27T09:44:04.306Z,41.63
2019-06-27T09:46:35.446Z,40.83
2019-06-27T09:49:05.133Z,41.03
2019-06-27T09:51:36.734Z,41.30
2019-06-27T09:54:06.530Z,41.73
2019-06-27T09:56:36.256Z,41.67
2019-06-27T09:59:05.925Z,41.13
2019-06-27T10:01:35.911Z,40.77
2019-06-27T10:04:05.606Z,40.97
2019-06-27T10:06:35.254Z,41.83
2019-06-27T10:09:06.263Z,41.70
2019-06-27T10:11:35.936Z,42.00
2019-06-27T10:19:27.711Z,41.40
2019-06-27T10:21:57.513Z,41.37
2019-06-27T10:24:27.167Z,40.60
2019-06-27T10:26:56.867Z,41.13
2019-06-27T10:29:26.528Z,40.93
2019-06-27T10:31:56.200Z,41.07
2019-06-27T10:34:27.369Z,41.60
2019-06-27T10:36:57.154Z,42.20
2019-06-27T10:39:26.827Z,41.73
2019-06-27T10:41:57.116Z,40.70
2019-06-27T10:44:26.767Z,41.53
2019-06-27T10:46:57.042Z,42.10
2019-06-27T10:49:26.659Z,41.83
2019-06-27T10:51:56.306Z,42.00
2019-06-27T10:54:25.992Z,41.83
2019-06-27T10:56:55.677Z,41.83
2019-06-27T10:59:25.364Z,42.00
2019-06-27T11:01:55.090Z,42.47
2019-06-27T11:04:24.790Z,41.53
2019-06-27T11:06:54.271Z,42.27
2019-06-27T11:09:25.573Z,41.53
2019-06-27T11:11:55.247Z,41.80
2019-06-27T11:14:24.924Z,41.87
2019-06-27T11:16:54.614Z,41.80
2019-06-27T11:19:24.317Z,41.50
2019-06-27T11:21:53.978Z,41.20
2019-06-27T11:24:23.650Z,41.30
2019-06-27T11:26:53.400Z,41.37
2019-06-27T11:29:23.077Z,41.80
2019-06-27T11:31:52.758Z,41.97
2019-06-27T11:34:22.507Z,42.83
2019-06-27T11:36:52.157Z,42.93
2019-06-27T11:39:23.354Z,42.37
2019-06-27T11:41:53.291Z,41.73
2019-06-27T11:44:22.968Z,41.70
2019-06-27T11:46:52.644Z,41.73
2019-06-27T11:49:22.340Z,41.97
2019-06-27T11:51:53.501Z,41.40
2019-06-27T11:54:23.180Z,41.60
2019-06-27T11:56:52.870Z,41.37
2019-06-27T11:59:22.539Z,41.53
2019-06-27T12:01:52.302Z,41.57
2019-06-27T12:04:22.126Z,42.13
2019-06-27T12:06:52.133Z,41.90
2019-06-27T12:09:21.766Z,42.07
2019-06-27T12:11:51.464Z,41.73
2019-06-27T12:14:24.193Z,42.10
2019-06-27T12:16:54.126Z,41.73
2019-06-27T12:19:24.218Z,42.50
2019-06-27T12:21:55.585Z,40.80
2019-06-27T12:24:25.274Z,41.53
2019-06-27T12:26:56.616Z,41.93
2019-06-27T12:29:26.296Z,41.50
2019-06-27T12:31:56.252Z,42.00
2019-06-27T12:34:25.956Z,42.07
2019-06-27T12:36:55.565Z,42.00
2019-06-27T12:39:25.237Z,41.60
2019-06-27T12:41:54.929Z,41.67
2019-06-27T12:44:24.600Z,42.03
2019-06-27T12:46:54.276Z,41.70
2019-06-27T12:49:41.135Z,42.03
2019-06-27T12:51:55.375Z,41.50
2019-06-27T12:54:25.217Z,42.23
2019-06-27T12:56:55.099Z,42.33
2019-06-27T12:59:26.583Z,42.27
2019-06-27T13:01:56.251Z,41.97
2019-06-27T13:04:25.954Z,41.97
2019-06-27T13:06:55.643Z,41.90
2019-06-27T13:09:25.427Z,41.60
2019-06-27T13:11:56.898Z,41.80
2019-06-27T13:14:26.549Z,42.90
2019-06-27T13:16:56.269Z,42.60
2019-06-27T13:19:25.978Z,41.73
2019-06-27T13:21:55.680Z,42.17
2019-06-27T13:24:25.635Z,41.77
2019-06-27T13:26:55.454Z,42.27
2019-06-27T13:29:27.039Z,42.97
2019-06-27T13:31:56.512Z,42.60
2019-06-27T13:34:39.396Z,42.00
2019-06-27T13:36:57.620Z,42.13
2019-06-27T13:39:27.313Z,42.03
2019-06-27T13:41:57.496Z,41.93
2019-06-27T13:44:27.177Z,42.57
2019-06-27T13:46:56.853Z,42.63
2019-06-27T13:49:26.954Z,42.57
2019-06-27T13:51:56.635Z,42.37
2019-06-27T13:54:26.331Z,42.63
2019-06-27T13:56:56.254Z,43.13
2019-06-27T13:59:25.969Z,43.97
2019-06-27T14:01:55.633Z,43.93
2019-06-27T14:04:25.325Z,44.20
2019-06-27T14:06:55.092Z,43.93
2019-06-27T14:09:24.738Z,44.18
2019-06-27T14:11:54.491Z,44.57
2019-06-27T14:14:24.155Z,44.98
2019-06-27T14:16:53.821Z,44.93
2019-06-27T14:19:23.522Z,44.13
2019-06-27T14:21:53.190Z,44.33
2019-06-27T14:24:23.954Z,44.83
2019-06-27T14:26:53.722Z,45.38
2019-06-27T14:29:23.390Z,45.25
2019-06-27T14:31:54.529Z,45.03
2019-06-27T14:34:26.013Z,45.08
2019-06-27T14:36:55.767Z,45.63
2019-06-27T14:39:25.521Z,45.05
2019-06-27T14:41:55.566Z,45.43
2019-06-27T14:44:25.215Z,45.85
2019-06-27T14:46:54.853Z,45.33
2019-06-27T14:49:24.550Z,45.67
2019-06-27T14:51:54.202Z,46.02
2019-06-27T14:54:24.562Z,45.63
2019-06-27T14:56:54.232Z,46.30
2019-06-27T14:59:24.046Z,46.02
2019-06-27T15:01:53.684Z,45.40
2019-06-27T15:04:23.462Z,45.63
2019-06-27T15:06:53.175Z,46.37
2019-06-27T15:09:24.296Z,47.17
2019-06-27T15:11:54.021Z,47.08
2019-06-27T15:14:23.683Z,46.25
2019-06-27T15:16:53.502Z,46.37
2019-06-27T15:19:23.160Z,46.25
2019-06-27T15:21:52.836Z,46.58
2019-06-27T15:24:22.515Z,46.18
2019-06-27T15:26:53.707Z,46.10
2019-06-27T15:29:23.357Z,45.25
2019-06-27T15:31:53.044Z,46.33
2019-06-27T15:34:23.370Z,46.90
2019-06-27T15:36:53.050Z,46.00
2019-06-27T15:39:22.770Z,46.42
2019-06-27T15:41:52.436Z,46.33
2019-06-27T15:44:22.151Z,46.45
2019-06-27T15:46:54.299Z,46.88
2019-06-27T15:49:24.109Z,46.10
2019-06-27T15:51:53.793Z,46.63
2019-06-27T15:54:23.469Z,46.80
2019-06-27T15:56:53.156Z,47.10
2019-06-27T15:59:24.397Z,46.63
2019-06-27T16:01:54.080Z,46.90
2019-06-27T16:04:32.628Z,46.42
2019-06-27T16:06:56.729Z,46.63
2019-06-27T16:09:26.402Z,46.55
2019-06-27T16:11:56.181Z,46.55
2019-06-27T16:14:25.903Z,45.85
2019-06-27T16:16:55.566Z,46.18
2019-06-27T16:19:25.300Z,31.80
2019-06-27T16:21:54.972Z,47.15
2019-06-27T16:24:24.641Z,46.53
2019-06-27T16:26:54.414Z,45.98
2019-06-27T16:29:24.077Z,46.58
2019-06-27T16:31:53.771Z,46.28
2019-06-27T16:34:23.678Z,46.10
2019-06-27T16:36:54.125Z,46.42
2019-06-27T16:39:23.813Z,46.90
2019-06-27T16:41:53.356Z,45.92
2019-06-27T16:44:23.295Z,45.78
2019-06-27T16:46:52.956Z,46.08
2019-06-27T16:49:22.649Z,45.73
2019-06-27T16:51:53.667Z,46.35
2019-06-27T16:54:23.356Z,46.55
2019-06-27T16:56:53.040Z,45.85
2019-06-27T16:59:22.705Z,46.33
2019-06-27T17:01:52.378Z,45.38
2019-06-27T17:04:22.479Z,46.02
2019-06-27T17:06:52.268Z,46.53
2019-06-27T17:09:21.943Z,46.18
2019-06-27T17:11:51.655Z,45.83
2019-06-27T17:14:21.486Z,45.58
2019-06-27T17:16:51.166Z,45.30
2019-06-27T17:19:20.878Z,46.42
2019-06-27T17:21:52.881Z,45.28
2019-06-27T17:24:22.608Z,45.92
2019-06-27T17:26:52.288Z,46.23
2019-06-27T17:29:22.025Z,46.58
2019-06-27T17:31:52.003Z,45.63
2019-06-27T17:34:21.714Z,46.23
2019-06-27T17:36:57.495Z,46.95
2019-06-27T17:39:22.803Z,46.18
2019-06-27T17:41:52.479Z,46.28
2019-06-27T17:44:22.216Z,47.13
2019-06-27T17:46:51.901Z,46.75
2019-06-27T17:49:27.961Z,45.75
2019-06-27T17:52:13.881Z,46.98
2019-06-27T17:54:44.693Z,46.98
2019-06-27T17:57:14.439Z,45.80
2019-06-27T17:59:44.088Z,46.77
2019-06-27T18:02:13.793Z,47.35
2019-06-27T18:04:43.475Z,46.20
2019-06-27T18:07:15.025Z,46.23
2019-06-27T18:09:44.441Z,45.10
2019-06-27T18:12:14.111Z,47.17
2019-06-27T18:14:43.790Z,45.97
2019-06-27T18:17:13.883Z,47.27
2019-06-27T18:19:43.399Z,46.63
2019-06-27T18:22:13.322Z,46.80
2019-06-27T18:24:43.020Z,45.53
2019-06-27T18:27:12.696Z,46.30
2019-06-27T18:29:42.382Z,47.03
2019-06-27T18:32:12.086Z,47.10
2019-06-27T18:34:41.745Z,45.90
2019-06-27T18:37:11.439Z,45.63
2019-06-27T18:39:41.140Z,46.50
2019-06-27T18:42:10.813Z,45.07
2019-06-27T18:44:40.742Z,46.20
2019-06-27T18:47:10.436Z,46.43
2019-06-27T18:49:40.104Z,45.20
2019-06-27T18:52:09.850Z,45.93
2019-06-27T18:54:39.557Z,45.67
2019-06-27T18:57:09.221Z,46.40
2019-06-27T18:59:39.018Z,47.20
2019-06-27T19:02:09.327Z,46.40
2019-06-27T19:04:39.007Z,46.40
2019-06-27T19:07:08.671Z,45.73
2019-06-27T19:09:38.747Z,46.37
2019-06-27T19:12:08.435Z,45.83
2019-06-27T19:14:38.072Z,46.67
2019-06-27T19:17:07.762Z,46.40
2019-06-27T19:19:39.071Z,46.17
2019-06-27T19:22:10.412Z,45.33
2019-06-27T19:24:47.718Z,45.97
2019-06-27T19:27:17.374Z,46.17
2019-06-27T19:29:47.048Z,45.17
2019-06-27T19:32:16.750Z,44.30
2019-06-27T19:34:47.409Z,45.57
2019-06-27T19:37:17.130Z,44.87
2019-06-27T19:39:46.818Z,46.17
2019-06-27T19:42:16.491Z,44.90
2019-06-27T19:44:46.138Z,44.73
2019-06-27T19:47:15.886Z,45.17
2019-06-27T19:49:45.552Z,44.13
2019-06-27T19:52:15.517Z,45.27
2019-06-27T19:54:45.192Z,44.23
2019-06-27T19:57:14.877Z,43.40
2019-06-27T19:59:44.559Z,44.73
2019-06-27T20:02:14.279Z,44.97
2019-06-27T20:04:43.920Z,44.03
2019-06-27T20:07:13.623Z,44.47
2019-06-27T20:09:43.303Z,44.70
2019-06-27T20:12:12.981Z,43.27
2019-06-27T20:14:42.661Z,43.63
2019-06-27T20:17:13.403Z,44.20
2019-06-27T20:19:44.734Z,44.33
2019-06-27T20:22:17.491Z,43.93
2019-06-27T20:24:47.236Z,44.03
2019-06-27T20:27:18.323Z,44.40
2019-06-27T20:29:47.972Z,43.97
2019-06-27T20:32:17.688Z,43.47
2019-06-27T20:34:47.357Z,43.97
2019-06-27T20:37:17.030Z,44.40
2019-06-27T20:39:46.722Z,44.43
2019-06-27T20:42:16.381Z,43.43
2019-06-27T20:44:46.483Z,43.67
2019-06-27T20:47:16.188Z,43.47
2019-06-27T20:49:46.469Z,43.30
2019-06-27T20:52:16.146Z,43.60
2019-06-27T20:54:45.816Z,42.57
2019-06-27T20:57:15.481Z,42.67
2019-06-27T20:59:45.176Z,42.60
2019-06-27T21:02:14.851Z,43.73
2019-06-27T21:04:44.509Z,44.10
2019-06-27T21:07:14.186Z,43.70
2019-06-27T21:09:43.864Z,43.40
2019-06-27T21:12:13.547Z,42.00
2019-06-27T21:14:44.459Z,42.93
2019-06-27T21:17:14.162Z,43.57
2019-06-27T21:19:45.017Z,42.83
2019-06-27T21:22:14.697Z,44.07
2019-06-27T21:24:44.406Z,44.17
2019-06-27T21:27:14.093Z,42.67
2019-06-27T21:29:43.802Z,42.80
2019-06-27T21:32:30.237Z,42.33
2019-06-27T21:34:45.553Z,42.40
2019-06-27T21:37:15.254Z,43.07
2019-06-27T21:39:44.924Z,42.90
2019-06-27T21:42:14.602Z,42.67
2019-06-27T21:44:44.604Z,43.33
2019-06-27T21:47:14.266Z,43.53
2019-06-27T21:49:43.982Z,42.70
2019-06-27T21:52:13.807Z,43.00
2019-06-27T21:54:43.469Z,42.87
2019-06-27T21:57:13.134Z,42.70
2019-06-27T21:59:42.819Z,42.93
2019-06-27T22:02:12.926Z,42.83
2019-06-27T22:04:44.337Z,42.97
2019-06-27T22:07:14.113Z,42.13
2019-06-27T22:09:43.849Z,42.77
2019-06-27T22:12:13.502Z,42.27
2019-06-27T22:14:43.396Z,42.97
2019-06-27T22:17:13.067Z,47.27
2019-06-27T22:19:42.863Z,42.30
2019-06-27T22:22:12.578Z,42.00
2019-06-27T22:24:42.271Z,42.27
2019-06-27T22:27:12.019Z,42.23
2019-06-27T22:29:41.731Z,42.60
2019-06-27T22:32:11.407Z,41.33
2019-06-27T22:34:41.078Z,42.43
2019-06-27T22:37:11.947Z,42.70
2019-06-27T22:39:59.432Z,41.67
2019-06-27T22:42:47.228Z,41.97
2019-06-27T22:45:34.698Z,42.27
2019-06-27T22:48:13.253Z,42.00
2019-06-27T22:50:50.480Z,42.20
2019-06-27T22:53:34.947Z,42.40
2019-06-27T22:56:05.120Z,41.83
2019-06-27T22:58:34.779Z,42.40
2019-06-27T23:01:06.130Z,42.30
2019-06-27T23:03:36.013Z,43.20
2019-06-27T23:06:05.873Z,41.07
2019-06-27T23:08:35.559Z,42.03
2019-06-27T23:11:05.251Z,42.43
2019-06-27T23:13:34.888Z,41.83
2019-06-27T23:16:05.813Z,42.63
2019-06-27T23:18:35.477Z,42.17
2019-06-27T23:21:05.146Z,42.30
2019-06-27T23:23:37.214Z,42.40
2019-06-27T23:26:06.880Z,42.00
2019-06-27T23:28:36.546Z,41.60
2019-06-27T23:31:06.223Z,42.47
2019-06-27T23:33:35.907Z,42.67
2019-06-27T23:36:05.580Z,42.33
2019-06-27T23:38:35.343Z,42.53
2019-06-27T23:41:06.258Z,41.63
2019-06-27T23:43:36.824Z,41.60
2019-06-27T23:46:08.153Z,42.90
2019-06-27T23:48:37.809Z,42.13
2019-06-27T23:51:07.471Z,42.83
2019-06-27T23:53:37.478Z,42.57
2019-06-27T23:56:07.124Z,42.30
2019-06-27T23:58:36.784Z,42.30
